createdAt,value
2018-08-10T13:53:09.077Z,11.07
2018-08-10T13:55:37.412Z,4.57
2018-08-10T13:58:05.508Z,5.97
2018-08-10T14:00:33.671Z,9.83
2018-08-10T14:03:05.969Z,14.80
2018-08-10T14:05:34.307Z,14.43
2018-08-10T14:08:02.572Z,15.20
2018-08-10T14:10:31.278Z,15.17
2018-08-10T14:12:59.508Z,13.73
2018-08-10T14:15:27.660Z,14.10
2018-08-10T14:17:55.875Z,14.20
2018-08-10T14:20:24.257Z,14.00
2018-08-10T14:22:52.446Z,13.03
2018-08-10T14:25:20.577Z,12.90
2018-08-10T14:27:48.843Z,12.97
2018-08-10T14:30:17.061Z,12.30
2018-08-10T14:32:45.280Z,12.33
2018-08-10T14:35:13.927Z,12.47
2018-08-10T14:37:42.537Z,12.40
2018-08-10T14:40:13.152Z,11.87
2018-08-10T14:42:41.424Z,11.80
2018-08-10T14:45:15.488Z,12.10
2018-08-10T14:47:43.691Z,13.30
2018-08-10T14:50:14.548Z,12.27
2018-08-10T14:52:42.824Z,13.50
2018-08-10T14:55:13.112Z,12.77
2018-08-10T14:57:41.416Z,12.77
2018-08-10T15:00:13.815Z,11.60
2018-08-10T15:02:42.305Z,11.77
2018-08-10T15:05:10.475Z,11.43
2018-08-10T15:07:38.629Z,11.70
2018-08-10T15:10:09.189Z,12.03
2018-08-10T15:12:38.137Z,12.17
2018-08-10T15:15:08.145Z,11.40
2018-08-10T15:17:36.789Z,12.20
2018-08-10T15:20:07.006Z,12.60
2018-08-10T15:22:35.333Z,12.93
2018-08-10T15:25:03.742Z,12.80
2018-08-10T15:27:31.956Z,12.33
2018-08-10T15:30:00.200Z,12.17
2018-08-10T15:32:28.377Z,13.07
2018-08-10T15:34:56.669Z,12.17
2018-08-10T15:37:25.293Z,13.33
2018-08-10T15:39:53.487Z,12.40
2018-08-10T15:42:21.617Z,12.23
2018-08-10T15:44:49.877Z,11.47
2018-08-10T15:49:57.900Z,12.57
2018-08-10T15:52:28.773Z,13.40
2018-08-10T15:54:57.346Z,13.30
2018-08-10T15:57:25.623Z,11.90
2018-08-10T15:59:53.905Z,12.10
2018-08-10T16:02:22.123Z,12.90
2018-08-10T16:04:50.397Z,12.40
2018-08-10T16:07:18.675Z,12.33
2018-08-10T16:09:47.061Z,11.90
2018-08-10T16:12:15.260Z,13.17
2018-08-10T16:14:43.455Z,12.43
2018-08-10T16:17:11.832Z,13.40
2018-08-10T16:19:40.695Z,13.17
2018-08-10T16:22:08.987Z,13.33
2018-08-10T16:24:37.266Z,14.10
2018-08-10T16:27:05.544Z,13.60
2018-08-10T16:29:33.837Z,13.50
2018-08-10T16:32:01.980Z,13.40
2018-08-10T16:34:30.281Z,13.83
2018-08-10T16:36:58.537Z,13.47
2018-08-10T16:39:26.912Z,14.33
2018-08-10T16:41:55.159Z,16.87
2018-08-10T16:44:23.338Z,12.67
2018-08-10T16:46:51.535Z,13.10
2018-08-10T16:49:19.759Z,12.53
2018-08-10T16:51:48.034Z,12.20
2018-08-10T16:54:16.414Z,12.70
2018-08-10T16:56:44.669Z,12.50
2018-08-10T16:59:13.209Z,12.87
2018-08-10T17:01:41.418Z,14.73
2018-08-10T17:04:09.836Z,12.80
2018-08-10T17:06:38.091Z,12.90
2018-08-10T17:09:07.872Z,13.93
2018-08-10T17:11:36.670Z,14.83
2018-08-10T17:14:04.892Z,12.30
2018-08-10T17:16:33.178Z,14.40
2018-08-10T17:19:01.297Z,13.53
2018-08-10T17:21:29.485Z,13.10
2018-08-10T17:23:57.743Z,12.57
2018-08-10T17:26:25.907Z,12.20
2018-08-10T17:28:54.018Z,12.20
2018-08-10T17:31:22.182Z,12.67
2018-08-10T17:33:50.377Z,12.00
2018-08-10T17:36:18.505Z,11.40
2018-08-10T17:38:46.696Z,12.13
2018-08-10T17:41:14.811Z,12.17
2018-08-10T17:43:43.469Z,13.20
2018-08-10T17:46:11.818Z,10.90
2018-08-10T17:48:40.243Z,9.90
2018-08-10T17:51:08.493Z,10.30
2018-08-10T17:53:36.677Z,9.80
2018-08-10T17:56:04.848Z,12.00
2018-08-10T17:58:32.962Z,11.33
2018-08-10T18:01:01.104Z,11.07
2018-08-10T18:03:29.204Z,9.83
2018-08-10T18:05:57.354Z,9.50
2018-08-10T18:08:25.536Z,9.50
2018-08-10T18:10:53.716Z,9.80
2018-08-10T18:13:22.562Z,10.53
2018-08-10T18:15:50.779Z,10.10
2018-08-10T18:18:18.964Z,9.80
2018-08-10T18:20:47.362Z,9.20
2018-08-10T18:23:15.624Z,8.50
2018-08-10T18:25:44.091Z,8.90
2018-08-10T18:28:12.266Z,8.67
2018-08-10T18:30:40.386Z,8.50
2018-08-10T18:33:08.503Z,8.73
2018-08-10T18:35:36.588Z,9.50
2018-08-10T18:38:04.832Z,11.30
2018-08-10T18:40:32.947Z,9.47
2018-08-10T18:43:01.040Z,8.73
2018-08-10T18:45:29.179Z,8.40
2018-08-10T18:47:57.236Z,9.43
2018-08-10T18:50:25.510Z,9.00
2018-08-10T18:52:53.566Z,7.87
2018-08-10T18:55:22.858Z,8.27
2018-08-10T18:57:51.389Z,7.87
2018-08-10T19:00:21.166Z,7.50
2018-08-10T19:02:49.230Z,8.20
2018-08-10T19:05:17.972Z,7.50
2018-08-10T19:07:46.662Z,8.77
2018-08-10T19:10:16.916Z,9.40
2018-08-10T19:14:09.513Z,8.53
2018-08-10T19:16:37.633Z,9.10
2018-08-10T19:19:05.708Z,9.20
2018-08-10T19:21:33.821Z,9.47
2018-08-10T19:24:33.739Z,9.47
2018-08-10T19:27:01.903Z,9.40
2018-08-10T19:29:30.244Z,9.20
2018-08-10T19:31:58.407Z,9.13
2018-08-10T19:34:26.540Z,8.07
2018-08-10T19:36:54.709Z,8.23
2018-08-10T19:39:22.863Z,8.20
2018-08-10T19:41:51.015Z,7.33
2018-08-10T19:44:19.732Z,8.37
2018-08-10T19:46:47.930Z,8.60
2018-08-10T19:49:16.147Z,13.17
2018-08-10T19:51:44.250Z,8.20
2018-08-10T19:54:12.452Z,8.40
2018-08-10T19:56:40.689Z,7.47
2018-08-10T19:59:10.664Z,7.67
2018-08-10T20:01:39.053Z,7.70
2018-08-10T20:04:08.084Z,6.70
2018-08-10T20:06:36.127Z,8.90
2018-08-10T20:09:07.454Z,7.57
2018-08-10T20:11:35.649Z,7.50
2018-08-10T20:14:03.969Z,7.10
2018-08-10T20:16:32.828Z,6.97
2018-08-10T20:19:01.350Z,5.80
2018-08-10T20:21:29.542Z,6.10
2018-08-10T20:23:57.669Z,5.90
2018-08-10T20:26:25.763Z,53.37
2018-08-10T20:28:53.967Z,18.90
2018-08-10T20:31:22.309Z,7.63
2018-08-10T20:34:53.678Z,5.70
2018-08-10T20:37:21.837Z,4.30
2018-08-10T20:39:52.249Z,4.20
2018-08-10T20:42:20.366Z,3.60
2018-08-10T20:44:49.138Z,3.87
2018-08-10T20:47:17.566Z,3.70
2018-08-10T20:49:45.692Z,3.70
2018-08-10T20:52:14.106Z,3.70
2018-08-10T20:54:42.588Z,4.20
2018-08-10T20:57:11.012Z,4.00
2018-08-10T20:59:39.331Z,4.43
2018-08-10T21:02:07.787Z,3.80
2018-08-10T21:04:36.293Z,4.27
2018-08-10T21:07:04.641Z,4.27
2018-08-10T21:09:32.836Z,3.60
2018-08-10T21:12:01.049Z,3.90
2018-08-10T21:14:29.209Z,3.97
2018-08-10T21:16:57.273Z,4.03
2018-08-10T21:19:25.501Z,3.77
2018-08-10T21:21:53.671Z,4.30
2018-08-10T21:24:22.085Z,4.53
2018-08-10T21:26:50.281Z,4.67
2018-08-10T21:29:18.640Z,4.20
2018-08-10T21:31:47.023Z,4.67
2018-08-10T21:34:15.191Z,3.63
2018-08-10T21:36:43.322Z,4.40
2018-08-10T21:39:12.431Z,4.63
2018-08-10T21:41:40.695Z,3.57
2018-08-10T21:45:12.239Z,4.10
2018-08-10T21:47:40.377Z,4.30
2018-08-10T21:50:10.896Z,4.40
2018-08-10T21:52:39.100Z,4.53
2018-08-10T21:55:07.389Z,4.70
2018-08-10T21:57:35.754Z,4.50
2018-08-10T22:00:08.936Z,4.80
2018-08-10T22:02:37.139Z,4.93
2018-08-10T22:05:06.309Z,4.60
2018-08-10T22:07:34.506Z,4.80
2018-08-10T22:10:02.744Z,4.30
2018-08-10T22:12:33.132Z,4.10
2018-08-10T22:15:06.964Z,3.70
2018-08-10T22:17:40.540Z,3.50
2018-08-10T22:20:08.631Z,3.67
2018-08-10T22:22:36.960Z,3.87
2018-08-10T22:25:05.242Z,3.87
2018-08-10T22:27:34.097Z,3.93
2018-08-10T22:30:02.322Z,3.83
2018-08-10T22:32:30.625Z,3.47
2018-08-10T22:34:58.749Z,4.60
2018-08-10T22:37:26.974Z,3.23
2018-08-10T22:39:55.434Z,3.53
2018-08-10T22:42:23.637Z,3.27
2018-08-10T22:44:51.868Z,3.80
2018-08-10T22:47:20.067Z,3.07
2018-08-10T22:49:48.366Z,3.30
2018-08-10T22:52:16.604Z,3.37
2018-08-10T22:54:44.840Z,2.90
2018-08-10T22:57:13.063Z,2.73
2018-08-10T22:59:41.252Z,3.03
2018-08-10T23:02:10.173Z,3.17
2018-08-10T23:04:38.391Z,3.33
2018-08-10T23:07:06.617Z,3.07
2018-08-10T23:09:34.747Z,2.90
2018-08-10T23:12:02.816Z,3.27
2018-08-10T23:14:30.995Z,3.00
2018-08-10T23:16:59.194Z,3.20
2018-08-10T23:19:27.298Z,3.10
2018-08-10T23:21:55.577Z,4.23
2018-08-10T23:24:23.835Z,3.27
2018-08-10T23:26:52.228Z,3.50
2018-08-10T23:29:20.325Z,5.27
2018-08-10T23:31:48.582Z,3.80
2018-08-10T23:34:16.768Z,3.03
2018-08-10T23:36:45.020Z,3.30
2018-08-10T23:39:13.190Z,2.93
2018-08-10T23:41:41.481Z,2.90
2018-08-10T23:44:09.798Z,3.60
2018-08-10T23:46:38.031Z,3.30
2018-08-10T23:49:06.402Z,2.83
2018-08-10T23:51:34.513Z,3.23
2018-08-10T23:54:02.730Z,3.70
2018-08-10T23:56:30.902Z,2.80
2018-08-10T23:58:59.362Z,2.87
